EHFS

Vlissingen

Vlissingen, The Netherlands
METAR EHFS 220625Z AUTO 12008KT 9999 NSC 12/10 Q1012 W///H///
Observed Flight Rules
Apr-22 @ 06:25 UTC (28 minutes ago) Visual Flight Rules
Wind Visibility Clouds
120° at 8 knots 10,000+ meters
  • Clear skies
Temperatures Readings
Current 12°C / 54°F
Dewpoint 10°C / 50°F
Humidity 88%
Altimeter 29.88" Hg
Pressure 1012 hPa
Elevation 32
METAR EHFS 220625Z AUTO 12008KT 9999 NSC 12/10 Q1012 W///H///
Observed Flight Rules
Apr-22 @ 06:25 UTC
(28 minutes ago)
VFR
Wind Visibility
120° at 8 knots 10,000+ meters
Clouds
  • Clear skies
Temperature Dewpoint
12°C / 54°F 10°C / 50°F
Humidity Altimeter Pressure
88% 29.88" Hg 1012 hPa